Time;durP1;ratioP1;P1;durP2;ratioP2;P2;SDS_P1;SDS_P2;PMS_P1;PMS_P2;Temp;Humidity;BMP_temperature;BMP_pressure;BME280_temperature;BME280_humidity;BME280_pressure;Samples;Min_cycle;Max_cycle;Signal;HPM_P1;HPM_P2
2021/07/06 00:00:25;;;;;;;10.52;7.35;;;;;;;17.78;100.00;100105.97;4945406;28;20047;-81
2021/07/06 00:02:51;;;;;;;7.32;6.18;;;;;;;17.78;99.53;100101.41;4959028;28;20093;-81
2021/07/06 00:05:18;;;;;;;8.40;6.40;;;;;;;17.76;99.87;100100.78;4941211;28;20043;-81
2021/07/06 00:07:46;;;;;;;8.18;6.45;;;;;;;17.77;100.00;100099.69;4960824;28;20113;-81
2021/07/06 00:10:13;;;;;;;7.90;5.90;;;;;;;17.74;100.00;100102.88;4944026;28;20070;-82
2021/07/06 00:12:39;;;;;;;9.45;6.18;;;;;;;17.74;100.00;100102.88;4940901;28;20168;-79
2021/07/06 00:15:08;;;;;;;6.97;5.45;;;;;;;17.74;100.00;100093.91;4960347;28;20054;-78
2021/07/06 00:17:33;;;;;;;6.68;5.40;;;;;;;17.74;100.00;100099.34;4938004;28;20327;-80
2021/07/06 00:19:59;;;;;;;7.47;6.00;;;;;;;17.74;100.00;100100.16;4958566;28;20201;-80
2021/07/06 00:22:24;;;;;;;7.97;5.90;;;;;;;17.76;100.00;100092.63;4960103;28;20562;-79
2021/07/06 00:24:50;;;;;;;7.22;5.47;;;;;;;17.77;99.98;100094.28;4956433;28;20516;-81
2021/07/06 00:27:15;;;;;;;6.32;5.70;;;;;;;17.76;100.00;100087.22;4959448;28;20145;-80
2021/07/06 00:29:41;;;;;;;7.65;5.28;;;;;;;17.77;100.00;100091.56;4956002;28;20387;-80
2021/07/06 00:32:07;;;;;;;6.40;5.18;;;;;;;17.77;100.00;100082.59;4958885;28;20245;-80
2021/07/06 00:34:32;;;;;;;5.93;4.65;;;;;;;17.77;100.00;100088.84;4941209;28;20133;-80
2021/07/06 00:36:58;;;;;;;7.32;5.05;;;;;;;17.76;100.00;100084.50;4961542;28;20077;-79
2021/07/06 00:39:23;;;;;;;5.82;4.57;;;;;;;17.78;100.00;100085.13;4951282;28;20108;-81
2021/07/06 00:41:48;;;;;;;5.13;4.55;;;;;;;17.81;99.58;100092.81;4936550;28;20048;-80
2021/07/06 00:44:18;;;;;;;6.40;4.65;;;;;;;17.85;99.88;100086.94;4959149;28;20050;-80
2021/07/06 00:46:45;;;;;;;5.20;4.45;;;;;;;17.87;99.72;100095.69;4930463;28;21126;-80
2021/07/06 00:49:11;;;;;;;6.03;4.72;;;;;;;17.87;100.00;100098.38;4942665;28;20527;-80
2021/07/06 00:51:36;;;;;;;5.80;4.80;;;;;;;17.88;100.00;100100.03;4935927;28;20555;-79
2021/07/06 00:54:05;;;;;;;5.45;4.85;;;;;;;17.89;100.00;100088.09;4939836;28;20047;-79
2021/07/06 00:56:31;;;;;;;7.05;4.45;;;;;;;17.91;100.00;100086.00;4945472;28;20812;-79
2021/07/06 00:58:56;;;;;;;7.18;4.75;;;;;;;17.91;100.00;100084.13;4961557;28;20051;-80
2021/07/06 01:01:22;;;;;;;7.18;4.78;;;;;;;17.91;100.00;100086.00;4962459;28;20396;-79
2021/07/06 01:03:48;;;;;;;6.20;4.88;;;;;;;17.94;100.00;100069.25;4942078;28;20395;-80
2021/07/06 01:06:13;;;;;;;7.40;4.88;;;;;;;17.93;100.00;100065.72;4958798;28;20050;-80
2021/07/06 01:08:39;;;;;;;7.15;5.28;;;;;;;17.96;100.00;100051.69;4959695;28;20579;-80
2021/07/06 01:11:05;;;;;;;6.85;5.68;;;;;;;17.96;99.85;100056.28;4957231;28;20553;-79
2021/07/06 01:13:33;;;;;;;6.22;4.90;;;;;;;17.97;100.00;100055.22;4949976;28;20476;-80
2021/07/06 01:15:58;;;;;;;6.32;4.93;;;;;;;17.99;100.00;100042.25;4915264;28;20418;-81
2021/07/06 01:18:23;;;;;;;6.22;5.13;;;;;;;18.00;100.00;100043.91;4941197;28;20590;-81
2021/07/06 01:20:51;;;;;;;6.00;4.85;;;;;;;18.03;100.00;100046.97;4948236;28;20532;-80
2021/07/06 01:23:20;;;;;;;7.65;5.03;;;;;;;18.06;100.00;100048.41;4933657;28;20384;-80
2021/07/06 01:25:46;;;;;;;;;;;;;;;18.08;100.00;100051.72;4928133;28;20079;-81
2021/07/06 01:28:12;;;;;;;5.25;4.22;;;;;;;18.04;100.00;100042.41;4955841;28;19949;-80
2021/07/06 01:30:38;;;;;;;6.22;4.60;;;;;;;18.06;99.78;100045.69;4962776;28;20046;-81
2021/07/06 01:33:05;;;;;;;7.55;4.20;;;;;;;18.10;100.00;100044.19;4959539;28;20547;-81
2021/07/06 01:35:31;;;;;;;6.22;4.30;;;;;;;18.16;98.76;100045.97;4946279;28;20049;-81
2021/07/06 01:38:01;;;;;;;6.30;4.13;;;;;;;18.18;99.71;100040.28;4936139;28;20337;-81
2021/07/06 01:40:28;;;;;;;5.70;4.18;;;;;;;18.20;99.51;100030.03;4954722;28;20424;-80
2021/07/06 01:42:55;;;;;;;6.13;4.05;;;;;;;18.22;99.17;100030.63;4943205;28;20035;-81
2021/07/06 01:45:27;;;;;;;6.00;4.68;;;;;;;18.24;98.71;100028.50;4940934;28;20031;-80
2021/07/06 01:47:59;;;;;;;6.93;4.82;;;;;;;18.24;98.20;100023.91;4935335;28;20054;-81
2021/07/06 01:50:31;;;;;;;8.70;4.60;;;;;;;18.24;99.62;100025.78;4964170;28;20381;-80
2021/07/06 01:52:59;;;;;;;5.40;4.45;;;;;;;18.25;99.46;100025.56;4965189;28;20056;-81
2021/07/06 01:55:30;;;;;;;7.60;4.53;;;;;;;18.26;98.41;100024.47;4934488;28;20520;-81
2021/07/06 01:57:58;;;;;;;6.68;4.40;;;;;;;18.22;99.52;100026.03;4959311;28;20129;-81
2021/07/06 02:00:26;;;;;;;6.00;4.10;;;;;;;18.26;98.99;100029.91;4954371;28;20246;-81
2021/07/06 02:02:58;;;;;;;6.30;4.13;;;;;;;18.25;99.26;100030.16;4951531;28;20043;-81
2021/07/06 02:05:31;;;;;;;6.63;4.18;;;;;;;18.26;97.96;100029.91;4963825;28;20345;-80
2021/07/06 02:07:57;;;;;;;6.35;3.85;;;;;;;18.26;98.96;100029.91;4963991;28;20047;-80
2021/07/06 02:10:26;;;;;;;6.32;3.58;;;;;;;18.25;99.15;100047.28;4947848;28;20053;-80
2021/07/06 02:12:52;;;;;;;5.10;3.78;;;;;;;18.26;99.13;100038.06;4957163;28;20132;-80
2021/07/06 02:15:18;;;;;;;5.57;3.75;;;;;;;18.26;100.00;100039.97;4944051;28;20920;-80
2021/07/06 02:17:44;;;;;;;5.38;3.78;;;;;;;18.24;99.54;100040.22;4943165;28;20043;-80
2021/07/06 02:20:12;;;;;;;8.25;3.88;;;;;;;18.23;99.66;100043.97;4947465;28;20051;-80
2021/07/06 02:22:42;;;;;;;5.28;4.13;;;;;;;18.23;100.00;100049.38;4944494;28;20534;-81
2021/07/06 02:25:08;;;;;;;6.80;4.88;;;;;;;18.20;100.00;100052.56;4943990;28;20066;-80
2021/07/06 02:27:34;;;;;;;6.35;4.60;;;;;;;18.17;100.00;100044.06;4947305;28;20508;-80
2021/07/06 02:30:00;;;;;;;6.65;4.80;;;;;;;18.14;100.00;100042.66;4927397;29;20047;-79
2021/07/06 02:32:25;;;;;;;7.22;5.20;;;;;;;18.13;100.00;100027.44;4907041;28;20046;-79
2021/07/06 02:34:51;;;;;;;6.90;4.93;;;;;;;18.10;100.00;100022.47;4941867;28;20043;-79
2021/07/06 02:37:17;;;;;;;7.25;5.45;;;;;;;18.03;100.00;100006.25;4945786;28;20043;-79
2021/07/06 02:39:43;;;;;;;7.85;5.68;;;;;;;17.99;100.00;99996.13;4942409;28;20303;-79
2021/07/06 02:42:08;;;;;;;6.47;5.10;;;;;;;17.94;100.00;99998.69;4915514;29;20453;-79
2021/07/06 02:44:34;;;;;;;6.15;4.78;;;;;;;17.90;100.00;99997.50;4939708;28;20519;-80
2021/07/06 02:46:59;;;;;;;6.85;4.97;;;;;;;17.85;100.00;100000.09;4948334;28;20050;-80
2021/07/06 02:49:25;;;;;;;5.68;4.10;;;;;;;17.80;100.00;100001.59;4929348;28;20046;-80
2021/07/06 02:51:50;;;;;;;5.75;4.28;;;;;;;17.78;100.00;99995.59;4903150;29;20035;-79
2021/07/06 02:54:15;;;;;;;5.75;3.92;;;;;;;17.77;100.00;99991.16;4925090;28;20207;-79
2021/07/06 02:56:41;;;;;;;5.55;4.03;;;;;;;17.77;100.00;99999.31;4925560;28;20250;-79
2021/07/06 02:59:06;;;;;;;5.70;4.20;;;;;;;17.80;100.00;99993.44;4942395;28;20504;-80
2021/07/06 03:01:32;;;;;;;7.00;4.30;;;;;;;17.78;100.00;99987.44;4945264;28;20047;-80
2021/07/06 03:03:57;;;;;;;5.72;4.47;;;;;;;17.75;100.00;99984.31;4903548;29;20118;-80
2021/07/06 03:06:23;;;;;;;6.57;5.18;;;;;;;17.74;100.00;99985.38;4942362;28;20081;-80
2021/07/06 03:08:49;;;;;;;7.53;5.55;;;;;;;17.70;100.00;99971.44;4923616;29;20550;-80
2021/07/06 03:11:15;;;;;;;8.80;5.88;;;;;;;17.64;100.00;99958.81;4921938;28;20110;-79
2021/07/06 03:13:40;;;;;;;9.95;5.78;;;;;;;17.61;100.00;99959.28;4924821;28;20046;-79
2021/07/06 03:16:05;;;;;;;8.10;6.25;;;;;;;17.56;100.00;99959.13;4940959;28;20047;-81
2021/07/06 03:18:31;;;;;;;8.68;6.25;;;;;;;17.50;100.00;99946.50;4942727;28;20039;-80
2021/07/06 03:20:56;;;;;;;8.80;6.65;;;;;;;17.43;100.00;99946.56;4923049;29;20047;-79
2021/07/06 03:23:22;;;;;;;8.52;6.90;;;;;;;17.43;100.00;99946.56;4943532;28;20039;-80
2021/07/06 03:25:47;;;;;;;8.60;6.30;;;;;;;17.40;100.00;99952.44;4912670;29;20051;-79
2021/07/06 03:28:13;;;;;;;7.05;5.88;;;;;;;17.37;100.00;99948.31;4904004;29;20071;-80
2021/07/06 03:30:39;;;;;;;7.95;6.32;;;;;;;17.38;100.00;99938.31;4944090;28;20050;-78
2021/07/06 03:33:08;;;;;;;7.65;6.13;;;;;;;17.36;100.00;99940.41;4941876;28;20286;-80
2021/07/06 03:35:34;;;;;;;8.55;6.90;;;;;;;17.32;100.00;99934.63;4947904;28;20046;-80
2021/07/06 03:37:59;;;;;;;9.40;7.32;;;;;;;17.28;100.00;99922.56;4922943;29;20089;-80
2021/07/06 03:40:26;;;;;;;8.93;6.95;;;;;;;17.26;100.00;99918.44;4925614;28;20533;-79
2021/07/06 03:42:52;;;;;;;9.27;6.25;;;;;;;17.24;100.00;99910.56;4933146;28;20146;-79
2021/07/06 03:45:18;;;;;;;8.02;6.55;;;;;;;17.24;100.00;99902.41;4920195;28;20039;-80
2021/07/06 03:47:44;;;;;;;11.52;6.22;;;;;;;17.23;100.00;99897.22;4924969;29;20097;-80
2021/07/06 03:50:20;;;;;;;7.38;6.15;;;;;;;17.21;100.00;99883.06;4924422;29;20476;-80
2021/07/06 03:52:50;;;;;;;6.70;5.40;;;;;;;17.18;100.00;99872.69;4939985;28;20500;-80
2021/07/06 03:55:16;;;;;;;7.75;5.80;;;;;;;17.16;100.00;99872.09;4925167;28;20555;-79
2021/07/06 03:57:42;;;;;;;8.23;5.85;;;;;;;17.15;100.00;99892.94;4926447;28;20043;-79
2021/07/06 04:00:11;;;;;;;6.55;5.00;;;;;;;17.14;100.00;99886.69;4922146;28;20098;-79
2021/07/06 04:02:37;;;;;;;7.13;5.75;;;;;;;17.13;100.00;99844.38;4942661;28;20455;-81
2021/07/06 04:05:10;;;;;;;6.50;5.32;;;;;;;17.16;100.00;99848.50;4940477;28;20387;-79
2021/07/06 04:07:36;;;;;;;7.95;5.60;;;;;;;17.17;100.00;99833.88;4945799;28;20054;-80
2021/07/06 04:10:07;;;;;;;6.35;4.93;;;;;;;17.21;100.00;99839.69;4925194;29;20094;-79
2021/07/06 04:12:33;;;;;;;9.18;4.80;;;;;;;17.22;100.00;99861.16;4956665;28;20388;-80
2021/07/06 04:14:58;;;;;;;6.63;4.47;;;;;;;17.26;100.00;99854.22;4951716;28;20149;-80
2021/07/06 04:17:24;;;;;;;5.78;4.30;;;;;;;17.29;100.00;99859.19;4957419;28;20488;-79
2021/07/06 04:19:49;;;;;;;6.13;4.15;;;;;;;17.34;100.00;99855.75;4925420;29;20066;-79
2021/07/06 04:22:15;;;;;;;5.25;3.95;;;;;;;17.38;100.00;99851.53;4930453;29;20126;-79
2021/07/06 04:24:40;;;;;;;4.97;3.85;;;;;;;17.42;100.00;99849.19;4929277;29;20047;-79
2021/07/06 04:27:06;;;;;;;4.70;3.15;;;;;;;17.45;100.00;99856.84;4929927;29;20548;-79
2021/07/06 04:29:31;;;;;;;4.82;3.15;;;;;;;17.48;100.00;99849.06;4941105;28;20035;-79
2021/07/06 04:31:56;;;;;;;3.80;3.05;;;;;;;17.52;100.00;99853.00;4964869;28;20130;-79
2021/07/06 04:34:23;;;;;;;5.35;3.45;;;;;;;17.55;100.00;99841.69;4954877;28;20438;-79
2021/07/06 04:36:49;;;;;;;4.38;3.20;;;;;;;17.57;100.00;99844.13;4965413;28;20031;-79
2021/07/06 04:39:14;;;;;;;3.47;2.47;;;;;;;17.62;100.00;99849.69;4966629;28;20041;-80
2021/07/06 04:41:42;;;;;;;3.60;2.42;;;;;;;17.65;100.00;99835.66;4969631;28;20050;-80
2021/07/06 04:44:08;;;;;;;4.90;2.70;;;;;;;17.69;100.00;99814.31;4965782;28;20035;-80
2021/07/06 04:46:33;;;;;;;3.88;2.25;;;;;;;17.70;100.00;99819.50;4933645;28;20391;-79
2021/07/06 04:48:58;;;;;;;3.65;2.00;;;;;;;17.74;100.00;99822.56;4965853;28;20129;-79
2021/07/06 04:51:24;;;;;;;3.30;2.38;;;;;;;17.78;100.00;99824.63;4946913;28;20057;-80
2021/07/06 04:53:49;;;;;;;6.55;2.30;;;;;;;17.84;100.00;99830.16;4968129;28;20042;-81
2021/07/06 04:56:14;;;;;;;5.28;2.20;;;;;;;17.88;100.00;99831.34;4954774;28;20093;-79
2021/07/06 04:58:40;;;;;;;3.03;1.52;;;;;;;17.91;100.00;99823.56;4948316;28;20043;-79
2021/07/06 05:01:08;;;;;;;3.50;1.50;;;;;;;17.95;100.00;99834.75;4937200;28;20618;-80
2021/07/06 05:03:34;;;;;;;4.72;1.80;;;;;;;17.98;100.00;99820.72;4964635;28;20027;-79
2021/07/06 05:06:00;;;;;;;3.47;1.48;;;;;;;18.02;100.00;99827.34;4948733;28;20053;-80
2021/07/06 05:08:26;;;;;;;3.38;1.85;;;;;;;18.04;100.00;99828.75;4947929;28;20496;-80
2021/07/06 05:10:52;;;;;;;2.65;1.60;;;;;;;18.09;98.89;99830.75;4968515;28;20121;-80
2021/07/06 05:13:18;;;;;;;2.25;1.48;;;;;;;18.15;99.30;99831.69;4970896;28;20507;-79
2021/07/06 05:15:44;;;;;;;2.88;1.70;;;;;;;18.18;98.40;99834.78;4967011;28;20050;-80
2021/07/06 05:18:10;;;;;;;5.22;1.70;;;;;;;18.26;97.93;99847.97;4951032;28;20730;-80
2021/07/06 05:20:36;;;;;;;8.88;1.98;;;;;;;18.32;97.71;99850.81;4951486;28;20117;-80
2021/07/06 05:23:01;;;;;;;2.47;1.30;;;;;;;18.39;97.14;99851.53;4944623;28;20102;-80
2021/07/06 05:25:27;;;;;;;2.55;1.45;;;;;;;18.43;96.99;99858.13;4947972;28;20123;-80
2021/07/06 05:27:52;;;;;;;3.90;1.65;;;;;;;18.48;97.10;99858.22;4960468;28;20058;-80
2021/07/06 05:30:19;;;;;;;3.53;1.60;;;;;;;18.55;96.58;99866.25;4942076;28;20141;-79
2021/07/06 05:32:45;;;;;;;3.72;1.38;;;;;;;18.65;96.70;99877.34;4967070;28;20050;-80
2021/07/06 05:35:10;;;;;;;4.88;1.73;;;;;;;18.72;95.44;99884.28;4972183;28;20038;-80
2021/07/06 05:37:36;;;;;;;3.95;1.92;;;;;;;18.78;95.06;99884.41;4937890;28;20162;-80
2021/07/06 05:40:07;;;;;;;3.28;1.60;;;;;;;18.82;94.57;99891.03;4935518;28;20384;-80
2021/07/06 05:42:36;;;;;;;2.83;1.33;;;;;;;18.86;94.18;99887.59;4972851;28;20808;-80
2021/07/06 05:45:03;;;;;;;4.53;1.60;;;;;;;18.89;93.56;99891.72;4964788;28;20046;-80
2021/07/06 05:47:28;;;;;;;3.67;1.50;;;;;;;18.93;93.64;99879.28;4965011;28;20484;-79
2021/07/06 05:49:53;;;;;;;2.65;1.40;;;;;;;18.96;92.94;99877.97;4947899;28;20053;-79
2021/07/06 05:52:19;;;;;;;2.53;1.30;;;;;;;19.00;91.93;99880.00;4945190;28;20178;-81
2021/07/06 05:54:44;;;;;;;3.45;1.48;;;;;;;19.04;91.74;99883.84;4933005;28;20038;-79
2021/07/06 05:57:10;;;;;;;2.65;1.15;;;;;;;19.12;91.03;99883.47;4962064;28;20039;-80
2021/07/06 05:59:35;;;;;;;5.50;1.40;;;;;;;19.16;90.19;99872.94;4960125;28;20086;-80
2021/07/06 06:02:00;;;;;;;3.10;1.35;;;;;;;19.22;89.81;99873.84;4947236;28;20039;-80
2021/07/06 06:04:27;;;;;;;5.15;1.40;;;;;;;19.25;89.52;99881.53;4930719;28;20051;-81
2021/07/06 06:06:53;;;;;;;4.43;1.40;;;;;;;19.30;88.99;99884.34;4955869;28;20419;-83
2021/07/06 06:09:18;;;;;;;2.78;1.50;;;;;;;19.35;88.26;99887.16;4973830;28;20514;-79
2021/07/06 06:11:44;;;;;;;3.42;1.48;;;;;;;19.39;87.97;99883.72;4966901;28;20060;-80
2021/07/06 06:14:09;;;;;;;4.47;1.48;;;;;;;19.45;87.75;99887.38;4935375;28;20050;-81
2021/07/06 06:16:34;;;;;;;4.05;1.45;;;;;;;19.46;88.10;99877.31;4963349;28;20513;-80
2021/07/06 06:19:00;;;;;;;4.53;1.40;;;;;;;19.47;87.45;99879.75;4964135;28;20139;-80
2021/07/06 06:21:26;;;;;;;3.47;1.50;;;;;;;19.51;87.19;99891.00;4968708;28;20042;-80
2021/07/06 06:23:53;;;;;;;3.50;1.65;;;;;;;19.54;87.58;99863.31;4962879;28;20054;-80
2021/07/06 06:26:18;;;;;;;3.53;1.40;;;;;;;19.55;86.83;99857.59;4963797;28;20185;-81
2021/07/06 06:28:44;;;;;;;2.13;1.40;;;;;;;19.58;86.72;99831.81;4963604;28;20117;-80
2021/07/06 06:31:10;;;;;;;4.22;1.40;;;;;;;19.60;86.31;99822.31;4945133;28;20038;-80
2021/07/06 06:33:35;;;;;;;5.60;1.65;;;;;;;19.64;86.45;99819.91;4943241;28;20035;-80
2021/07/06 06:36:01;;;;;;;4.28;1.50;;;;;;;19.66;86.02;99796.03;4967200;28;20042;-80
2021/07/06 06:38:26;;;;;;;5.30;1.50;;;;;;;19.67;86.12;99764.22;4967237;28;20395;-80
2021/07/06 06:40:51;;;;;;;3.80;1.60;;;;;;;19.65;86.53;99797.13;4935475;28;20050;-80
2021/07/06 06:43:17;;;;;;;3.58;1.38;;;;;;;19.70;85.96;99867.13;4947049;28;20050;-80
2021/07/06 06:45:43;;;;;;;4.95;1.58;;;;;;;19.71;86.16;99827.94;4935740;28;20337;-79
2021/07/06 06:48:09;;;;;;;3.33;1.40;;;;;;;19.72;85.78;99854.09;4948820;28;20129;-81
2021/07/06 06:50:34;;;;;;;2.97;1.60;;;;;;;19.72;86.31;99843.22;4956363;28;20141;-80
2021/07/06 06:53:00;;;;;;;3.17;1.35;;;;;;;19.72;86.70;99854.94;4956342;28;20039;-79
2021/07/06 06:55:25;;;;;;;2.72;1.20;;;;;;;19.71;86.22;99864.19;4929567;28;20329;-80
2021/07/06 06:57:50;;;;;;;5.32;1.40;;;;;;;19.70;86.06;99856.25;4941053;28;20677;-80
2021/07/06 07:00:16;;;;;;;3.33;1.40;;;;;;;19.72;85.97;99873.97;4958330;28;20047;-79
2021/07/06 07:02:43;;;;;;;2.97;1.80;;;;;;;19.73;85.35;99872.06;4951520;28;20038;-79
2021/07/06 07:05:11;;;;;;;4.70;1.50;;;;;;;19.75;85.81;99881.66;4931593;28;20053;-79
2021/07/06 07:07:37;;;;;;;2.97;1.30;;;;;;;19.72;85.48;99857.66;4964890;28;20117;-79
2021/07/06 07:10:03;;;;;;;2.53;1.05;;;;;;;19.72;85.01;99796.94;4961664;28;20535;-79
2021/07/06 07:12:29;;;;;;;2.72;1.30;;;;;;;19.70;85.75;99807.25;4949880;28;20042;-79
2021/07/06 07:14:55;;;;;;;3.33;1.38;;;;;;;19.68;85.26;99882.88;4954001;28;20073;-79
2021/07/06 07:17:22;;;;;;;3.20;1.10;;;;;;;19.67;85.02;99878.50;4950526;28;20051;-79
2021/07/06 07:19:47;;;;;;;4.53;1.75;;;;;;;19.66;85.48;99894.03;4943491;28;20384;-80
2021/07/06 07:22:14;;;;;;;5.38;1.65;;;;;;;19.66;85.38;99876.88;4944850;28;20066;-79
2021/07/06 07:24:39;;;;;;;2.65;1.38;;;;;;;19.65;84.79;99870.59;4950691;28;20075;-80
2021/07/06 07:27:05;;;;;;;4.63;1.70;;;;;;;19.66;84.89;99871.44;4969722;28;20548;-79
2021/07/06 07:29:31;;;;;;;1.50;0.82;;;;;;;19.63;84.72;99869.16;4967807;28;20038;-79
2021/07/06 07:31:56;;;;;;;3.05;1.20;;;;;;;19.63;85.01;99866.44;4968401;28;20046;-79
2021/07/06 07:34:22;;;;;;;2.63;1.30;;;;;;;19.61;84.92;99850.34;4942739;28;20148;-79
2021/07/06 07:36:47;;;;;;;2.92;1.30;;;;;;;19.62;85.20;99838.38;4970680;28;20035;-79
2021/07/06 07:39:13;;;;;;;3.67;1.33;;;;;;;19.57;85.56;99841.88;4965811;28;20038;-79
2021/07/06 07:41:38;;;;;;;2.30;0.93;;;;;;;19.55;85.47;99863.03;4959456;28;20483;-80
2021/07/06 07:44:04;;;;;;;2.53;0.90;;;;;;;19.54;85.31;99857.88;4948647;28;20137;-81
2021/07/06 07:46:30;;;;;;;3.60;1.10;;;;;;;19.54;85.61;99847.81;4957036;28;20176;-80
2021/07/06 07:48:56;;;;;;;2.65;1.17;;;;;;;19.56;85.17;99842.09;4969627;28;20043;-80
2021/07/06 07:51:21;;;;;;;3.47;0.80;;;;;;;19.57;84.97;99841.88;4972091;28;20047;-79
2021/07/06 07:53:50;;;;;;;1.67;1.02;;;;;;;19.59;84.79;99844.31;4961878;28;20038;-79
2021/07/06 07:56:16;;;;;;;2.47;0.80;;;;;;;19.60;84.06;99852.25;4963796;28;20051;-79
2021/07/06 07:58:42;;;;;;;2.60;0.82;;;;;;;19.65;83.42;99842.50;4946308;29;20389;-80
2021/07/06 08:01:07;;;;;;;3.58;1.23;;;;;;;19.67;82.83;99835.78;4955589;28;20067;-80
2021/07/06 08:03:33;;;;;;;2.17;0.80;;;;;;;19.70;82.45;99848.06;4966398;28;20035;-79
2021/07/06 08:05:59;;;;;;;3.08;0.90;;;;;;;19.75;82.00;99854.44;4966645;28;20042;-79
2021/07/06 08:08:25;;;;;;;2.70;0.88;;;;;;;19.80;80.83;99848.25;4964550;28;20035;-79
2021/07/06 08:10:54;;;;;;;3.33;0.77;;;;;;;19.86;79.49;99862.78;4950139;28;20033;-79
2021/07/06 08:13:24;;;;;;;4.07;0.80;;;;;;;19.92;79.08;99843.53;4947446;28;20122;-81
2021/07/06 08:15:50;;;;;;;3.13;1.55;;;;;;;19.99;78.62;99856.97;4917638;28;20113;-81
2021/07/06 08:18:17;;;;;;;1.30;0.75;;;;;;;20.02;78.16;99851.88;4948855;28;20043;-80
2021/07/06 08:20:43;;;;;;;1.88;0.73;;;;;;;20.05;78.22;99858.69;4948045;28;20046;-80
2021/07/06 08:23:09;;;;;;;2.58;0.80;;;;;;;20.06;78.07;99863.91;4948731;28;20042;-79
2021/07/06 08:25:35;;;;;;;2.65;0.98;;;;;;;20.11;77.55;99865.91;4948888;28;20815;-80
2021/07/06 08:28:00;;;;;;;1.92;0.90;;;;;;;20.14;77.85;99865.41;4948792;28;20047;-80
2021/07/06 08:30:26;;;;;;;2.30;0.98;;;;;;;20.17;76.35;99847.69;4947137;28;20051;-79
2021/07/06 08:32:51;;;;;;;1.67;0.85;;;;;;;20.22;77.33;99847.78;4945766;29;20293;-80
2021/07/06 08:35:17;;;;;;;3.50;0.75;;;;;;;20.22;77.25;99855.94;4940379;28;20055;-80
2021/07/06 08:37:42;;;;;;;2.88;0.80;;;;;;;20.27;77.14;99856.03;4948629;28;20073;-79
2021/07/06 08:40:10;;;;;;;3.20;1.08;;;;;;;20.30;76.38;99855.53;4965614;28;20043;-80
2021/07/06 08:42:39;;;;;;;2.17;0.90;;;;;;;20.32;76.34;99875.19;4964714;28;20531;-80
2021/07/06 08:45:07;;;;;;;1.98;0.77;;;;;;;20.35;76.07;99865.69;4948554;28;20039;-80
2021/07/06 08:47:33;;;;;;;2.17;0.90;;;;;;;20.38;76.29;99878.81;4963366;28;20041;-80
2021/07/06 08:50:02;;;;;;;3.67;1.30;;;;;;;20.39;76.62;99875.00;4958897;28;20078;-80
2021/07/06 08:52:29;;;;;;;2.72;0.93;;;;;;;20.45;77.90;99876.72;4963119;28;20085;-79
2021/07/06 08:54:55;;;;;;;3.72;0.98;;;;;;;20.45;77.44;99887.59;4965985;28;20236;-79
2021/07/06 08:57:23;;;;;;;3.20;1.10;;;;;;;20.46;77.51;99884.66;4966503;28;20058;-79
2021/07/06 08:59:49;;;;;;;3.08;1.20;;;;;;;20.48;77.53;99890.69;4948316;28;20046;-81
2021/07/06 09:02:20;;;;;;;2.78;0.98;;;;;;;20.47;77.26;99866.38;4963716;28;20043;-80
2021/07/06 09:04:48;;;;;;;5.35;1.10;;;;;;;20.47;77.73;99882.75;4964931;28;20317;-80
2021/07/06 09:07:14;;;;;;;3.72;0.80;;;;;;;20.41;77.02;99873.66;4964575;28;20051;-80
2021/07/06 09:09:40;;;;;;;4.82;0.90;;;;;;;20.45;77.74;99879.44;4965531;28;20046;-79
2021/07/06 09:12:07;;;;;;;1.77;0.70;;;;;;;20.45;77.94;99888.44;4942764;28;20027;-80
2021/07/06 09:14:36;;;;;;;1.83;0.88;;;;;;;20.41;77.28;99884.56;4963195;28;20034;-79
2021/07/06 09:17:09;;;;;;;3.22;0.90;;;;;;;20.46;78.07;99879.19;4947775;28;20041;-80
2021/07/06 09:19:35;;;;;;;1.67;0.70;;;;;;;20.43;78.31;99885.16;4932027;28;20039;-80
2021/07/06 09:22:11;;;;;;;2.38;0.80;;;;;;;20.44;78.08;99877.78;4946099;28;20059;-79
2021/07/06 09:24:37;;;;;;;1.95;0.80;;;;;;;20.45;77.95;99880.25;4948088;28;20359;-80
2021/07/06 09:27:31;;;;;;;2.03;0.90;;;;;;;20.46;77.58;99892.81;4946857;28;20066;-81
2021/07/06 09:30:08;;;;;;;2.53;0.93;;;;;;;20.45;78.13;99880.25;4945824;28;20507;-80
2021/07/06 09:32:37;;;;;;;2.35;0.80;;;;;;;20.43;78.50;99887.88;4947441;28;20043;-82
2021/07/06 09:35:09;;;;;;;1.85;1.00;;;;;;;20.43;78.64;99887.06;4962883;28;20122;-82
2021/07/06 09:37:45;;;;;;;6.00;3.38;;;;;;;20.40;77.75;99891.09;4945797;28;20089;-80
2021/07/06 09:40:38;;;;;;;1.92;0.70;;;;;;;20.36;77.23;99875.50;4964526;28;20116;-79
2021/07/06 09:43:22;;;;;;;2.85;0.98;;;;;;;20.36;78.16;99910.91;4941384;28;20046;-79
2021/07/06 09:46:04;;;;;;;2.75;0.60;;;;;;;20.35;76.08;99907.38;4961153;28;20420;-79
2021/07/06 09:48:32;;;;;;;3.67;1.05;;;;;;;20.37;76.37;99894.34;4930713;28;20555;-80
2021/07/06 09:51:21;;;;;;;2.35;0.88;;;;;;;20.36;75.34;99892.66;4961855;28;20440;-79
2021/07/06 09:53:51;;;;;;;1.20;0.52;;;;;;;20.38;76.57;99906.88;4962789;28;20050;-81
2021/07/06 09:56:19;;;;;;;1.48;0.60;;;;;;;20.35;72.85;99914.72;4946675;28;20556;-80
2021/07/06 09:58:52;;;;;;;2.08;0.90;;;;;;;20.41;73.88;99911.81;4961573;28;20487;-80
2021/07/06 10:01:17;;;;;;;1.40;0.57;;;;;;;20.45;72.76;99923.03;4963999;28;20117;-81
2021/07/06 10:03:43;;;;;;;1.98;0.63;;;;;;;20.44;72.86;99927.66;4944813;28;20135;-81
2021/07/06 10:06:10;;;;;;;2.83;0.82;;;;;;;20.49;72.04;99935.09;4960331;28;20039;-81
2021/07/06 10:08:35;;;;;;;1.30;0.57;;;;;;;20.49;71.17;99932.38;4968290;28;20046;-82
2021/07/06 10:11:01;;;;;;;2.38;0.50;;;;;;;20.53;72.36;99940.91;4952058;28;20228;-80
2021/07/06 10:13:27;;;;;;;1.63;0.77;;;;;;;20.51;72.17;99933.78;4952105;28;20113;-81
2021/07/06 10:15:53;;;;;;;1.15;0.50;;;;;;;20.53;71.47;99955.34;4969921;28;20256;-81
2021/07/06 10:18:20;;;;;;;1.67;0.68;;;;;;;20.52;71.67;99948.22;4950424;28;20046;-81
2021/07/06 10:20:45;;;;;;;2.75;0.77;;;;;;;20.57;71.58;99952.94;4966733;28;20447;-81
2021/07/06 10:23:11;;;;;;;1.83;0.60;;;;;;;20.47;70.14;99935.34;4968943;28;20526;-80
2021/07/06 10:25:37;;;;;;;2.17;0.52;;;;;;;20.44;71.00;99935.03;4953350;28;20069;-80
2021/07/06 10:28:06;;;;;;;1.13;0.60;;;;;;;20.39;69.45;99941.19;4951574;28;20039;-81
2021/07/06 10:30:42;;;;;;;0.90;0.65;;;;;;;20.40;70.37;99953.78;4950141;28;20491;-81
2021/07/06 10:33:14;;;;;;;2.05;0.65;;;;;;;20.45;70.50;99955.72;4951041;28;20050;-80
2021/07/06 10:35:42;;;;;;;3.60;0.70;;;;;;;20.44;69.40;99957.63;4969424;28;20071;-81
2021/07/06 10:38:26;;;;;;;2.53;0.93;;;;;;;20.55;70.19;99955.09;4950562;28;20054;-82
2021/07/06 10:40:53;;;;;;;1.70;0.80;;;;;;;20.66;70.91;99955.00;4951465;28;20435;-81
2021/07/06 10:43:31;;;;;;;3.55;0.68;;;;;;;20.83;69.75;99954.97;4949994;28;20386;-82
2021/07/06 10:46:13;;;;;;;1.77;0.70;;;;;;;20.99;69.89;99944.25;4934349;29;20043;-80
2021/07/06 10:48:41;;;;;;;2.95;0.70;;;;;;;21.17;69.07;99958.38;4949885;28;20522;-81
2021/07/06 10:51:06;;;;;;;2.42;0.68;;;;;;;21.34;69.02;99946.56;4966272;28;20173;-80
2021/07/06 10:53:32;;;;;;;1.67;0.70;;;;;;;21.39;69.34;99952.94;4939642;28;20130;-81
2021/07/06 10:56:01;;;;;;;1.55;0.63;;;;;;;21.44;68.46;99948.63;4946496;28;20035;-80
2021/07/06 10:58:49;;;;;;;4.05;0.60;;;;;;;21.45;69.00;99964.75;4953098;28;20506;-80
2021/07/06 11:01:37;;;;;;;1.73;0.63;;;;;;;21.39;69.06;99979.41;4968499;28;20130;-81
2021/07/06 11:04:03;;;;;;;2.58;0.70;;;;;;;21.33;62.37;99980.41;4947210;29;20283;-80
2021/07/06 11:06:49;;;;;;;2.75;0.70;;;;;;;21.48;61.94;99985.25;4967727;28;20043;-80
2021/07/06 11:09:29;;;;;;;1.98;0.60;;;;;;;21.53;57.85;99977.13;4946035;28;20071;-81
2021/07/06 11:12:22;;;;;;;3.00;0.70;;;;;;;21.66;57.04;99976.69;4960022;28;20065;-81
2021/07/06 11:14:49;;;;;;;0.52;0.40;;;;;;;21.75;57.17;99998.91;4923414;29;20465;-82
2021/07/06 11:17:34;;;;;;;1.60;0.50;;;;;;;21.89;54.98;100002.03;4965106;28;20039;-82
2021/07/06 11:20:06;;;;;;;4.45;2.83;;;;;;;22.07;57.63;100013.44;4950213;28;20093;-81
2021/07/06 11:22:54;;;;;;;2.00;0.70;;;;;;;22.12;56.96;100037.22;4946137;29;20051;-81
2021/07/06 11:25:20;;;;;;;2.50;0.60;;;;;;;22.28;56.95;100008.19;4915379;29;20066;-83
2021/07/06 11:28:13;;;;;;;3.45;0.60;;;;;;;22.26;55.72;100018.53;4935792;28;20049;-81
2021/07/06 11:30:45;;;;;;;3.10;0.80;;;;;;;22.17;55.67;100014.59;4911521;29;20683;-81